Time;durP1;ratioP1;P1;durP2;ratioP2;P2;SDS_P1;SDS_P2;PMS_P1;PMS_P2;Temp;Humidity;BMP_temperature;BMP_pressure;BME280_temperature;BME280_humidity;BME280_pressure;Samples;Min_cycle;Max_cycle;Signal;HPM_P1;HPM_P2
2020/12/13 00:00:14;;;;;;;27.67;23.10;;;;;;;;;;5070223;28;20684;-57
2020/12/13 00:02:39;;;;;;;28.80;22.63;;;;;;;;;;5070126;28;20218;-57
2020/12/13 00:05:04;;;;;;;27.40;23.60;;;;;;;;;;5067112;28;20542;-57
2020/12/13 00:07:30;;;;;;;30.67;24.30;;;;;;;;;;5070017;28;20681;-57
2020/12/13 00:09:55;;;;;;;26.92;23.23;;;;;;;;;;5070235;28;20170;-57
2020/12/13 00:12:20;;;;;;;26.97;22.23;;;;;;;;;;5069926;28;20220;-57
2020/12/13 00:14:45;;;;;;;28.47;23.17;;;;;;;;;;5069522;28;20179;-57
2020/12/13 00:17:10;;;;;;;29.30;23.23;;;;;;;;;;5071461;28;20597;-57
2020/12/13 00:19:35;;;;;;;26.48;23.20;;;;;;;;;;5069620;28;21836;-57
2020/12/13 00:22:01;;;;;;;27.13;23.75;;;;;;;;;;5070210;28;20174;-57
2020/12/13 00:24:26;;;;;;;27.13;22.10;;;;;;;;;;5069369;28;20181;-56
2020/12/13 00:26:51;;;;;;;28.35;22.85;;;;;;;;;;5065182;28;21873;-57
2020/12/13 00:29:17;;;;;;;28.63;24.10;;;;;;;;;;5069987;28;20177;-57
2020/12/13 00:31:42;;;;;;;28.27;22.83;;;;;;;;;;5069597;28;20177;-57
2020/12/13 00:34:07;;;;;;;28.73;24.42;;;;;;;;;;5070088;28;20178;-57
2020/12/13 00:36:32;;;;;;;29.25;24.23;;;;;;;;;;5065004;28;20260;-57
2020/12/13 00:38:57;;;;;;;30.70;24.10;;;;;;;;;;5069381;28;20521;-57
2020/12/13 00:41:23;;;;;;;27.52;23.73;;;;;;;;;;5069625;28;20179;-57
2020/12/13 00:43:48;;;;;;;28.73;23.00;;;;;;;;;;5070227;28;20170;-56
2020/12/13 00:46:13;;;;;;;30.42;24.65;;;;;;;;;;5065558;28;20210;-56
2020/12/13 00:48:39;;;;;;;32.08;25.55;;;;;;;;;;5067968;28;20563;-56
2020/12/13 00:51:04;;;;;;;29.60;23.60;;;;;;;;;;5069538;28;20171;-56
2020/12/13 00:53:29;;;;;;;30.38;22.73;;;;;;;;;;5069125;28;20178;-59
2020/12/13 00:55:54;;;;;;;26.70;23.33;;;;;;;;;;5069663;28;20171;-57
2020/12/13 00:58:19;;;;;;;28.63;23.65;;;;;;;;;;5063071;28;20206;-56
2020/12/13 01:00:44;;;;;;;28.63;23.63;;;;;;;;;;5068843;28;20557;-56
2020/12/13 01:03:10;;;;;;;29.43;23.23;;;;;;;;;;5068952;28;20665;-57
2020/12/13 01:05:35;;;;;;;30.90;22.87;;;;;;;;;;5069321;28;20185;-57
2020/12/13 01:08:00;;;;;;;28.70;22.80;;;;;;;;;;5066474;28;20222;-57
2020/12/13 01:10:25;;;;;;;30.17;24.23;;;;;;;;;;5069198;28;20642;-57
2020/12/13 01:12:50;;;;;;;27.10;22.27;;;;;;;;;;5068763;28;20220;-57
2020/12/13 01:15:16;;;;;;;28.43;22.23;;;;;;;;;;5064074;28;20237;-57
2020/12/13 01:17:47;;;;;;;26.30;22.17;;;;;;;;;;5068433;28;20227;-57
2020/12/13 01:20:13;;;;;;;27.13;21.10;;;;;;;;;;5061121;28;20170;-57
2020/12/13 01:22:39;;;;;;;29.00;23.23;;;;;;;;;;5068947;28;20938;-57
2020/12/13 01:25:05;;;;;;;29.77;23.00;;;;;;;;;;5066618;28;20259;-57
2020/12/13 01:27:30;;;;;;;24.17;21.47;;;;;;;;;;5067348;28;20241;-57
2020/12/13 01:29:55;;;;;;;28.75;23.55;;;;;;;;;;5066471;28;22262;-57
2020/12/13 01:32:20;;;;;;;25.50;21.75;;;;;;;;;;5072883;28;20171;-57
2020/12/13 01:34:45;;;;;;;28.83;22.90;;;;;;;;;;5075447;28;20183;-56
2020/12/13 01:37:11;;;;;;;26.40;21.88;;;;;;;;;;5076069;28;20869;-57
2020/12/13 01:39:36;;;;;;;29.63;23.48;;;;;;;;;;5074263;28;20167;-57
2020/12/13 01:42:01;;;;;;;32.30;23.70;;;;;;;;;;5073654;28;20215;-57
2020/12/13 01:44:34;;;;;;;27.07;22.53;;;;;;;;;;5075666;28;20213;-57
2020/12/13 01:46:59;;;;;;;29.67;23.93;;;;;;;;;;5075396;28;20695;-57
2020/12/13 01:49:29;;;;;;;28.23;24.60;;;;;;;;;;5074236;28;20695;-57
2020/12/13 01:54:23;;;;;;;34.50;26.53;;;;;;;;;;5075529;28;20970;-57
2020/12/13 01:56:51;;;;;;;35.13;28.03;;;;;;;;;;5075640;28;20683;-56
2020/12/13 01:59:18;;;;;;;38.10;29.20;;;;;;;;;;5075461;28;20187;-57
2020/12/13 02:01:45;;;;;;;35.20;29.30;;;;;;;;;;5067360;28;20597;-57
2020/12/13 02:04:10;;;;;;;38.07;28.93;;;;;;;;;;5075116;28;20593;-56
2020/12/13 02:06:37;;;;;;;39.37;29.40;;;;;;;;;;5074833;28;20678;-57
2020/12/13 02:09:02;;;;;;;37.03;29.73;;;;;;;;;;5075289;28;20183;-56
2020/12/13 02:11:31;;;;;;;38.40;29.30;;;;;;;;;;5070415;28;21140;-56
2020/12/13 02:13:56;;;;;;;40.33;30.50;;;;;;;;;;5075435;28;20172;-57
2020/12/13 02:16:21;;;;;;;42.10;31.83;;;;;;;;;;5074931;28;21255;-56
2020/12/13 02:18:47;;;;;;;40.13;30.07;;;;;;;;;;5075120;28;20202;-57
2020/12/13 02:21:13;;;;;;;39.73;30.47;;;;;;;;;;5070101;28;20633;-57
2020/12/13 02:23:39;;;;;;;37.77;29.40;;;;;;;;;;5066956;28;20182;-57
2020/12/13 02:26:07;;;;;;;37.30;29.33;;;;;;;;;;5075374;28;21150;-57
2020/12/13 02:28:35;;;;;;;34.53;27.20;;;;;;;;;;5074988;28;20192;-57
2020/12/13 02:31:00;;;;;;;36.60;28.00;;;;;;;;;;5072627;28;20686;-57
2020/12/13 02:33:25;;;;;;;36.38;28.52;;;;;;;;;;5073053;28;20696;-56
2020/12/13 02:35:51;;;;;;;38.78;29.15;;;;;;;;;;5075020;28;20170;-58
2020/12/13 02:38:16;;;;;;;38.85;29.33;;;;;;;;;;5075563;28;20179;-55
2020/12/13 02:40:41;;;;;;;39.33;30.15;;;;;;;;;;5074825;28;20782;-56
2020/12/13 02:43:06;;;;;;;39.88;28.70;;;;;;;;;;5069463;28;20185;-56
2020/12/13 02:45:31;;;;;;;39.27;28.67;;;;;;;;;;5071629;28;20175;-56
2020/12/13 02:47:56;;;;;;;38.23;29.43;;;;;;;;;;5071844;28;20256;-55
2020/12/13 02:50:21;;;;;;;39.22;29.38;;;;;;;;;;5071642;28;20570;-55
2020/12/13 02:52:47;;;;;;;36.97;30.33;;;;;;;;;;5065117;28;20187;-56
2020/12/13 02:55:12;;;;;;;43.20;30.27;;;;;;;;;;5072411;28;20263;-56
2020/12/13 02:57:40;;;;;;;35.75;28.25;;;;;;;;;;5071626;28;20873;-57
2020/12/13 03:00:06;;;;;;;36.90;28.10;;;;;;;;;;5070901;28;20182;-57
2020/12/13 03:02:31;;;;;;;39.00;30.60;;;;;;;;;;5067549;28;20589;-57
2020/12/13 03:04:56;;;;;;;35.70;28.25;;;;;;;;;;5070993;28;20174;-56
2020/12/13 03:07:21;;;;;;;36.97;28.30;;;;;;;;;;5071631;28;20195;-56
2020/12/13 03:09:46;;;;;;;37.07;28.90;;;;;;;;;;5071813;28;20175;-57
2020/12/13 03:12:11;;;;;;;37.50;29.67;;;;;;;;;;5067307;28;20172;-56
2020/12/13 03:14:36;;;;;;;37.92;29.83;;;;;;;;;;5063182;28;20193;-57
2020/12/13 03:17:03;;;;;;;38.78;28.88;;;;;;;;;;5071103;28;20577;-57
2020/12/13 03:19:28;;;;;;;38.70;28.10;;;;;;;;;;5071065;28;20175;-57
2020/12/13 03:21:53;;;;;;;36.10;28.40;;;;;;;;;;5069754;28;20592;-57
2020/12/13 03:24:19;;;;;;;38.50;30.08;;;;;;;;;;5069183;28;20263;-57
2020/12/13 03:26:44;;;;;;;39.60;30.63;;;;;;;;;;5071278;28;20699;-56
2020/12/13 03:29:09;;;;;;;38.37;29.97;;;;;;;;;;5070924;28;20270;-56
2020/12/13 03:31:34;;;;;;;41.17;31.67;;;;;;;;;;5069341;28;20163;-57
2020/12/13 03:34:00;;;;;;;37.20;29.10;;;;;;;;;;5071138;28;20259;-57
2020/12/13 03:36:25;;;;;;;37.75;30.33;;;;;;;;;;5070189;28;20580;-57
2020/12/13 03:38:50;;;;;;;41.83;30.77;;;;;;;;;;5070810;28;20627;-57
2020/12/13 03:41:15;;;;;;;40.78;29.38;;;;;;;;;;5066995;28;20176;-56
2020/12/13 03:43:40;;;;;;;39.42;29.95;;;;;;;;;;5070677;28;20217;-59
2020/12/13 03:46:05;;;;;;;39.90;29.10;;;;;;;;;;5066973;28;20717;-57
2020/12/13 03:48:30;;;;;;;38.40;30.40;;;;;;;;;;5070623;28;20209;-57
2020/12/13 03:50:56;;;;;;;39.17;30.55;;;;;;;;;;5070160;28;20184;-56
2020/12/13 03:53:21;;;;;;;38.53;29.35;;;;;;;;;;5068583;28;20191;-56
2020/12/13 03:55:46;;;;;;;37.97;29.37;;;;;;;;;;5069466;28;20200;-56
2020/12/13 03:58:11;;;;;;;37.10;29.80;;;;;;;;;;5070288;28;20675;-56
2020/12/13 04:00:36;;;;;;;36.30;28.47;;;;;;;;;;5070016;28;20171;-57
2020/12/13 04:03:05;;;;;;;41.38;31.10;;;;;;;;;;5067965;28;20172;-57
2020/12/13 04:05:30;;;;;;;40.60;31.40;;;;;;;;;;5067979;28;20170;-56
2020/12/13 04:07:56;;;;;;;38.20;29.87;;;;;;;;;;5063632;28;20644;-57
2020/12/13 04:10:21;;;;;;;34.90;29.38;;;;;;;;;;5069687;28;20697;-56
2020/12/13 04:12:47;;;;;;;40.30;30.47;;;;;;;;;;5068456;28;20210;-57
2020/12/13 04:15:12;;;;;;;37.03;29.00;;;;;;;;;;5070724;28;20293;-57
2020/12/13 04:17:37;;;;;;;37.33;29.17;;;;;;;;;;5068780;28;20740;-57
2020/12/13 04:20:04;;;;;;;38.30;30.87;;;;;;;;;;5070283;28;20183;-57
2020/12/13 04:22:29;;;;;;;37.17;30.60;;;;;;;;;;5068027;28;20206;-56
2020/12/13 04:24:54;;;;;;;39.35;31.17;;;;;;;;;;5069944;28;20607;-57
2020/12/13 04:27:19;;;;;;;39.60;30.10;;;;;;;;;;5069333;28;20203;-57
2020/12/13 04:29:44;;;;;;;39.47;30.60;;;;;;;;;;5070233;28;20221;-56
2020/12/13 04:32:10;;;;;;;39.00;30.45;;;;;;;;;;5067675;28;20192;-57
2020/12/13 04:34:35;;;;;;;34.37;28.40;;;;;;;;;;5070185;28;20209;-57
2020/12/13 04:37:00;;;;;;;35.97;29.70;;;;;;;;;;5069811;28;20207;-56
2020/12/13 04:39:25;;;;;;;39.17;29.90;;;;;;;;;;5068504;28;20617;-57
2020/12/13 04:41:51;;;;;;;37.10;30.33;;;;;;;;;;5067872;28;20642;-56
2020/12/13 04:44:17;;;;;;;38.50;29.40;;;;;;;;;;5069295;28;20916;-56
2020/12/13 04:46:44;;;;;;;35.57;29.33;;;;;;;;;;5069724;28;20197;-57
2020/12/13 04:49:09;;;;;;;39.10;30.67;;;;;;;;;;5068833;28;20613;-57
2020/12/13 04:51:37;;;;;;;38.40;29.80;;;;;;;;;;5067455;28;20658;-57
2020/12/13 04:54:04;;;;;;;38.23;30.63;;;;;;;;;;5069678;28;20653;-57
2020/12/13 04:56:31;;;;;;;38.47;30.30;;;;;;;;;;5069392;28;20625;-56
2020/12/13 04:58:56;;;;;;;34.80;27.90;;;;;;;;;;5069127;28;20609;-57
2020/12/13 05:01:21;;;;;;;36.00;29.23;;;;;;;;;;5068915;28;20627;-56
2020/12/13 05:03:46;;;;;;;38.10;29.47;;;;;;;;;;5067008;28;20174;-57
2020/12/13 05:06:13;;;;;;;34.25;27.98;;;;;;;;;;5068911;28;20203;-57
2020/12/13 05:08:38;;;;;;;34.43;28.80;;;;;;;;;;5068968;28;20751;-56
2020/12/13 05:11:03;;;;;;;35.05;28.67;;;;;;;;;;5066393;28;21171;-57
2020/12/13 05:13:28;;;;;;;36.95;29.17;;;;;;;;;;5064991;28;20214;-56
2020/12/13 05:15:53;;;;;;;35.58;27.70;;;;;;;;;;5068867;28;20190;-57
2020/12/13 05:18:18;;;;;;;37.72;29.40;;;;;;;;;;5069317;28;20190;-56
2020/12/13 05:20:44;;;;;;;37.08;29.30;;;;;;;;;;5068465;28;20702;-57
2020/12/13 05:23:09;;;;;;;35.13;27.97;;;;;;;;;;5067157;28;20171;-57
2020/12/13 05:25:35;;;;;;;35.87;28.80;;;;;;;;;;5069395;28;20175;-56
2020/12/13 05:28:04;;;;;;;37.13;28.40;;;;;;;;;;5067151;28;20303;-56
2020/12/13 05:30:33;;;;;;;34.87;27.90;;;;;;;;;;5068210;28;21157;-57
2020/12/13 05:33:03;;;;;;;36.17;27.70;;;;;;;;;;5065009;28;20593;-57
2020/12/13 05:35:28;;;;;;;37.00;28.47;;;;;;;;;;5068710;28;20627;-56
2020/12/13 05:37:54;;;;;;;36.17;28.40;;;;;;;;;;5068650;28;20713;-56
2020/12/13 05:40:19;;;;;;;35.83;28.70;;;;;;;;;;5068373;28;20186;-57
2020/12/13 05:42:47;;;;;;;36.83;28.47;;;;;;;;;;5065075;28;20171;-56
2020/12/13 05:45:21;;;;;;;35.73;27.70;;;;;;;;;;5068757;28;20629;-57
2020/12/13 05:48:14;;;;;;;35.47;29.10;;;;;;;;;;5064848;28;20648;-56
2020/12/13 05:50:53;;;;;;;34.37;26.73;;;;;;;;;;5068803;28;20613;-57
2020/12/13 05:53:19;;;;;;;37.23;29.03;;;;;;;;;;5062318;28;20690;-56
2020/12/13 05:55:44;;;;;;;34.87;28.03;;;;;;;;;;5068915;28;20642;-56
2020/12/13 05:58:10;;;;;;;35.47;28.33;;;;;;;;;;5068970;28;20534;-56
2020/12/13 06:00:35;;;;;;;37.77;27.37;;;;;;;;;;5068516;28;20174;-57
2020/12/13 06:03:03;;;;;;;36.93;28.57;;;;;;;;;;5064182;28;20258;-57
2020/12/13 06:05:28;;;;;;;37.57;28.80;;;;;;;;;;5068735;28;20172;-57
2020/12/13 06:07:56;;;;;;;32.43;26.83;;;;;;;;;;5068800;28;20968;-57
2020/12/13 06:10:25;;;;;;;33.87;27.20;;;;;;;;;;5068514;28;20203;-57
2020/12/13 06:13:03;;;;;;;36.50;28.83;;;;;;;;;;5064577;28;20604;-57
2020/12/13 06:15:30;;;;;;;32.10;27.57;;;;;;;;;;5065769;28;20598;-57
2020/12/13 06:17:55;;;;;;;33.93;27.70;;;;;;;;;;5070877;28;20680;-57
2020/12/13 06:20:21;;;;;;;34.57;28.30;;;;;;;;;;5072505;28;20748;-56
2020/12/13 06:22:47;;;;;;;32.80;26.87;;;;;;;;;;5069560;28;20280;-57
2020/12/13 06:25:13;;;;;;;34.00;26.90;;;;;;;;;;5071048;28;21157;-56
2020/12/13 06:27:38;;;;;;;33.43;27.87;;;;;;;;;;5070904;28;20678;-56
2020/12/13 06:30:09;;;;;;;37.40;28.50;;;;;;;;;;5069198;28;20245;-57
2020/12/13 06:32:41;;;;;;;32.10;26.30;;;;;;;;;;5069839;28;20171;-57
2020/12/13 06:35:06;;;;;;;33.40;28.17;;;;;;;;;;5072282;28;21193;-58
2020/12/13 06:37:31;;;;;;;31.77;27.40;;;;;;;;;;5072036;28;20586;-57
2020/12/13 06:39:56;;;;;;;41.15;30.70;;;;;;;;;;5072230;28;20178;-57
2020/12/13 06:42:26;;;;;;;35.22;29.65;;;;;;;;;;5070044;28;20187;-58
2020/12/13 06:45:04;;;;;;;34.63;27.80;;;;;;;;;;5069219;28;20972;-57
2020/12/13 06:47:30;;;;;;;32.87;26.80;;;;;;;;;;5071470;28;20627;-57
2020/12/13 06:49:55;;;;;;;34.00;27.50;;;;;;;;;;5069008;28;20600;-57
2020/12/13 06:52:26;;;;;;;34.08;27.75;;;;;;;;;;5072632;28;20167;-57
2020/12/13 06:54:51;;;;;;;34.90;27.77;;;;;;;;;;5069250;28;20178;-57
2020/12/13 06:57:17;;;;;;;34.10;26.90;;;;;;;;;;5072225;28;20710;-56
2020/12/13 06:59:44;;;;;;;32.90;26.43;;;;;;;;;;5071661;28;20182;-57
2020/12/13 07:02:09;;;;;;;31.60;26.50;;;;;;;;;;5072188;28;20597;-56
2020/12/13 07:04:43;;;;;;;32.75;26.23;;;;;;;;;;5069862;28;20645;-56
2020/12/13 07:07:16;;;;;;;30.13;25.63;;;;;;;;;;5071798;28;20196;-56
2020/12/13 07:09:42;;;;;;;32.43;25.93;;;;;;;;;;5071591;28;20700;-57
2020/12/13 07:12:08;;;;;;;33.77;27.07;;;;;;;;;;5071566;28;20698;-57
2020/12/13 07:14:35;;;;;;;34.93;28.50;;;;;;;;;;5069727;28;20176;-57
2020/12/13 07:17:06;;;;;;;35.77;28.00;;;;;;;;;;5070773;28;20651;-57
2020/12/13 07:19:33;;;;;;;30.60;24.87;;;;;;;;;;5071430;28;20618;-58
2020/12/13 07:22:00;;;;;;;33.23;27.40;;;;;;;;;;5070974;28;21027;-57
2020/12/13 07:24:25;;;;;;;33.87;26.67;;;;;;;;;;5069111;28;20592;-57
2020/12/13 07:26:50;;;;;;;31.80;25.77;;;;;;;;;;5070932;28;20687;-57
2020/12/13 07:29:16;;;;;;;34.07;26.20;;;;;;;;;;5070153;28;20182;-56
2020/12/13 07:31:45;;;;;;;31.80;26.87;;;;;;;;;;5071229;28;20246;-57
2020/12/13 07:34:10;;;;;;;34.27;27.10;;;;;;;;;;5065607;28;20209;-56
2020/12/13 07:36:35;;;;;;;33.73;27.03;;;;;;;;;;5059865;28;20633;-57
2020/12/13 07:39:02;;;;;;;33.60;26.57;;;;;;;;;;5067886;28;20682;-57
2020/12/13 07:41:27;;;;;;;33.77;27.80;;;;;;;;;;5068980;28;20184;-56
2020/12/13 07:44:03;;;;;;;34.40;27.27;;;;;;;;;;5067572;28;20950;-57
2020/12/13 07:46:29;;;;;;;33.50;26.57;;;;;;;;;;5070340;28;20173;-57
2020/12/13 07:49:08;;;;;;;33.10;27.50;;;;;;;;;;5070865;28;20652;-57
2020/12/13 07:51:34;;;;;;;34.90;28.60;;;;;;;;;;5069807;28;20650;-57
2020/12/13 07:54:12;;;;;;;34.50;27.17;;;;;;;;;;5063259;28;20973;-57
2020/12/13 07:56:37;;;;;;;34.30;27.60;;;;;;;;;;5066585;28;20633;-58
2020/12/13 07:59:09;;;;;;;30.83;26.30;;;;;;;;;;5070349;28;20616;-57
2020/12/13 08:01:35;;;;;;;31.90;25.23;;;;;;;;;;5070048;28;20525;-57
2020/12/13 08:04:00;;;;;;;30.07;26.27;;;;;;;;;;5068130;28;20613;-57
2020/12/13 08:06:26;;;;;;;33.57;26.80;;;;;;;;;;5063686;28;20203;-57
2020/12/13 08:08:51;;;;;;;30.90;26.27;;;;;;;;;;5069825;28;20203;-57
2020/12/13 08:11:16;;;;;;;33.13;26.90;;;;;;;;;;5068893;28;20174;-58
2020/12/13 08:13:54;;;;;;;34.47;27.87;;;;;;;;;;5066562;28;20206;-57
2020/12/13 08:16:22;;;;;;;33.73;27.60;;;;;;;;;;5068133;28;20214;-56
2020/12/13 08:18:48;;;;;;;31.17;25.20;;;;;;;;;;5068957;28;21163;-56
2020/12/13 08:21:17;;;;;;;32.90;27.13;;;;;;;;;;5070727;28;20609;-58
2020/12/13 08:23:44;;;;;;;30.13;25.20;;;;;;;;;;5068311;28;20598;-58
2020/12/13 08:26:09;;;;;;;30.47;26.50;;;;;;;;;;5068820;28;20613;-57
2020/12/13 08:28:36;;;;;;;28.67;25.57;;;;;;;;;;5068931;28;21011;-57
2020/12/13 08:31:01;;;;;;;29.90;25.87;;;;;;;;;;5070422;28;20184;-57
2020/12/13 08:33:26;;;;;;;31.00;25.03;;;;;;;;;;5067103;28;21035;-57
2020/12/13 08:35:51;;;;;;;30.63;26.57;;;;;;;;;;5060607;28;20190;-58
2020/12/13 08:38:17;;;;;;;32.15;26.40;;;;;;;;;;5069649;28;20788;-58
2020/12/13 08:40:45;;;;;;;29.43;26.20;;;;;;;;;;5070229;28;20270;-57
2020/12/13 08:43:17;;;;;;;32.90;27.57;;;;;;;;;;5068341;28;20176;-57
2020/12/13 08:45:42;;;;;;;31.97;26.50;;;;;;;;;;5069851;28;20594;-57
2020/12/13 08:48:08;;;;;;;30.90;26.83;;;;;;;;;;5070556;28;20643;-57
2020/12/13 08:50:39;;;;;;;33.00;26.50;;;;;;;;;;5068608;28;20183;-56
2020/12/13 08:53:23;;;;;;;31.80;26.87;;;;;;;;;;5066868;28;20173;-56
2020/12/13 08:56:02;;;;;;;32.90;26.07;;;;;;;;;;5063860;28;20598;-57
2020/12/13 08:58:27;;;;;;;32.40;27.30;;;;;;;;;;5067582;28;20690;-56
2020/12/13 09:01:03;;;;;;;31.65;25.58;;;;;;;;;;5068711;28;20613;-58
2020/12/13 09:03:28;;;;;;;31.80;26.90;;;;;;;;;;5065169;28;20642;-57
2020/12/13 09:05:54;;;;;;;28.07;23.87;;;;;;;;;;5067610;28;20605;-57
2020/12/13 09:08:22;;;;;;;33.13;26.20;;;;;;;;;;5060489;28;20207;-58
2020/12/13 09:10:48;;;;;;;31.00;27.00;;;;;;;;;;5057661;28;20198;-58
2020/12/13 09:13:13;;;;;;;31.43;26.97;;;;;;;;;;5060613;28;20651;-58
2020/12/13 09:15:39;;;;;;;31.63;25.23;;;;;;;;;;5067296;28;20654;-57
2020/12/13 09:18:04;;;;;;;31.38;26.10;;;;;;;;;;5061117;28;20629;-58
2020/12/13 09:20:30;;;;;;;31.93;26.07;;;;;;;;;;5054676;28;20302;-57
2020/12/13 09:23:11;;;;;;;31.03;26.27;;;;;;;;;;5065998;28;20185;-56
2020/12/13 09:25:41;;;;;;;31.53;26.53;;;;;;;;;;5065411;28;20595;-58
2020/12/13 09:28:15;;;;;;;32.30;27.90;;;;;;;;;;5068746;28;21067;-58
2020/12/13 09:30:41;;;;;;;34.40;27.83;;;;;;;;;;5067544;28;20695;-58
2020/12/13 09:33:07;;;;;;;33.97;26.57;;;;;;;;;;5065177;28;21205;-57
2020/12/13 09:35:32;;;;;;;32.17;25.97;;;;;;;;;;5063118;28;20176;-57
2020/12/13 09:37:58;;;;;;;30.63;25.90;;;;;;;;;;5068256;28;20181;-57
2020/12/13 09:40:23;;;;;;;32.37;27.47;;;;;;;;;;5065657;28;20178;-57
2020/12/13 09:42:48;;;;;;;32.88;26.90;;;;;;;;;;5066537;28;20617;-59
2020/12/13 09:45:14;;;;;;;29.63;25.97;;;;;;;;;;5066997;28;20179;-57
2020/12/13 09:47:39;;;;;;;31.80;27.42;;;;;;;;;;5068627;28;20248;-57
2020/12/13 09:50:04;;;;;;;34.00;26.97;;;;;;;;;;5067846;28;20179;-57
2020/12/13 09:52:33;;;;;;;36.50;28.97;;;;;;;;;;5064809;28;20654;-57
2020/12/13 09:54:59;;;;;;;34.93;29.00;;;;;;;;;;5069486;28;20175;-57
2020/12/13 09:57:24;;;;;;;32.07;28.60;;;;;;;;;;5072574;28;20676;-58
2020/12/13 09:59:49;;;;;;;35.37;29.30;;;;;;;;;;5072518;28;20175;-57
2020/12/13 10:02:14;;;;;;;29.77;26.02;;;;;;;;;;5067567;28;20547;-58
2020/12/13 10:04:40;;;;;;;31.23;27.60;;;;;;;;;;5060773;28;20650;-58
2020/12/13 10:09:49;;;;;;;33.67;27.20;;;;;;;;;;5065309;28;20698;-59
2020/12/13 10:12:14;;;;;;;27.83;24.38;;;;;;;;;;5066836;28;20596;-58
2020/12/13 10:14:39;;;;;;;32.42;25.38;;;;;;;;;;5070538;28;20552;-58
2020/12/13 10:17:04;;;;;;;32.70;25.67;;;;;;;;;;5072572;28;20240;-58
2020/12/13 10:19:30;;;;;;;31.33;26.80;;;;;;;;;;5072712;28;20660;-57
2020/12/13 10:21:55;;;;;;;34.97;26.83;;;;;;;;;;5065150;28;20649;-58
2020/12/13 10:24:20;;;;;;;33.42;28.55;;;;;;;;;;5070791;28;20170;-58
2020/12/13 10:26:45;;;;;;;32.30;27.20;;;;;;;;;;5072613;28;20572;-58
2020/12/13 10:29:11;;;;;;;29.60;25.83;;;;;;;;;;5072384;28;20276;-58
2020/12/13 10:31:37;;;;;;;32.87;28.00;;;;;;;;;;5072464;28;20184;-58
2020/12/13 10:34:03;;;;;;;31.40;26.03;;;;;;;;;;5069628;28;20253;-58
2020/12/13 10:36:30;;;;;;;35.10;28.70;;;;;;;;;;5072295;28;20585;-58
2020/12/13 10:38:55;;;;;;;31.60;26.10;;;;;;;;;;5070223;28;20595;-58
2020/12/13 10:41:21;;;;;;;31.53;26.23;;;;;;;;;;5071030;28;21006;-59
2020/12/13 10:43:47;;;;;;;31.33;26.40;;;;;;;;;;5066559;28;20179;-58
2020/12/13 10:46:12;;;;;;;35.20;28.67;;;;;;;;;;5071578;28;20182;-58
2020/12/13 10:48:37;;;;;;;30.30;26.47;;;;;;;;;;5071497;28;20256;-58
2020/12/13 10:51:02;;;;;;;32.28;26.45;;;;;;;;;;5071674;28;20181;-57
2020/12/13 10:53:27;;;;;;;28.43;25.40;;;;;;;;;;5069648;28;20248;-57
2020/12/13 10:55:53;;;;;;;30.57;25.87;;;;;;;;;;5065300;28;20542;-58
2020/12/13 10:58:18;;;;;;;30.50;26.00;;;;;;;;;;5071512;28;20590;-57
2020/12/13 11:00:43;;;;;;;32.00;26.83;;;;;;;;;;5072052;28;20695;-58
2020/12/13 11:03:09;;;;;;;34.28;27.75;;;;;;;;;;5070746;28;20536;-58
2020/12/13 11:05:34;;;;;;;28.87;25.67;;;;;;;;;;5066467;28;20236;-57
2020/12/13 11:07:59;;;;;;;33.58;26.85;;;;;;;;;;5071632;28;20326;-58
2020/12/13 11:10:24;;;;;;;31.83;27.47;;;;;;;;;;5071618;28;20182;-59
2020/12/13 11:12:49;;;;;;;36.95;28.48;;;;;;;;;;5058065;28;20668;-59
2020/12/13 11:15:14;;;;;;;31.13;26.50;;;;;;;;;;5062839;28;20175;-58
2020/12/13 11:17:39;;;;;;;36.28;27.48;;;;;;;;;;5067421;28;20221;-58
2020/12/13 11:20:05;;;;;;;31.50;27.27;;;;;;;;;;5071420;28;20602;-58
2020/12/13 11:22:30;;;;;;;30.00;25.47;;;;;;;;;;5070819;28;20632;-58
2020/12/13 11:24:55;;;;;;;29.77;26.60;;;;;;;;;;5069055;28;20473;-59
2020/12/13 11:27:20;;;;;;;33.33;26.67;;;;;;;;;;5069842;28;20201;-58
2020/12/13 11:29:45;;;;;;;33.60;25.73;;;;;;;;;;5071098;28;20256;-58
2020/12/13 11:32:11;;;;;;;30.75;26.38;;;;;;;;;;5070948;28;20591;-58
2020/12/13 11:34:36;;;;;;;34.15;27.65;;;;;;;;;;5068626;28;20181;-58
2020/12/13 11:37:04;;;;;;;34.95;28.85;;;;;;;;;;5065329;28;20194;-58
2020/12/13 11:39:31;;;;;;;34.53;28.10;;;;;;;;;;5070302;28;20695;-59
2020/12/13 11:41:57;;;;;;;34.43;29.50;;;;;;;;;;5070346;28;20641;-58
2020/12/13 11:44:22;;;;;;;36.63;30.93;;;;;;;;;;5068517;28;20624;-58
2020/12/13 11:46:47;;;;;;;35.03;26.87;;;;;;;;;;5067939;28;21047;-59
2020/12/13 11:49:12;;;;;;;32.47;27.43;;;;;;;;;;5067355;28;20214;-58
2020/12/13 11:51:41;;;;;;;30.85;26.45;;;;;;;;;;5068597;28;20173;-58
2020/12/13 11:54:06;;;;;;;35.37;27.00;;;;;;;;;;5067730;28;20333;-59
2020/12/13 11:56:31;;;;;;;29.35;25.63;;;;;;;;;;5069741;28;20600;-59
2020/12/13 11:58:56;;;;;;;35.80;28.75;;;;;;;;;;5066223;28;20237;-58
2020/12/13 12:01:22;;;;;;;35.50;29.00;;;;;;;;;;5070331;28;20658;-58
2020/12/13 12:03:48;;;;;;;34.03;28.60;;;;;;;;;;5070071;28;20177;-59
2020/12/13 12:06:14;;;;;;;31.27;27.33;;;;;;;;;;5068696;28;20595;-59
2020/12/13 12:08:43;;;;;;;34.50;26.57;;;;;;;;;;5066253;28;20199;-58
2020/12/13 12:11:08;;;;;;;28.23;25.10;;;;;;;;;;5063789;28;21153;-58
2020/12/13 12:13:33;;;;;;;31.90;26.33;;;;;;;;;;5064367;28;20694;-59
2020/12/13 12:15:58;;;;;;;33.25;27.88;;;;;;;;;;5061781;28;20171;-58
2020/12/13 12:18:23;;;;;;;32.60;26.40;;;;;;;;;;5069405;28;20184;-58
2020/12/13 12:20:48;;;;;;;32.55;28.25;;;;;;;;;;5063542;28;20262;-59
2020/12/13 12:23:14;;;;;;;35.22;27.70;;;;;;;;;;5067237;28;20168;-57
2020/12/13 12:25:39;;;;;;;31.63;28.00;;;;;;;;;;5066100;28;20174;-59
2020/12/13 12:28:04;;;;;;;33.07;27.73;;;;;;;;;;5070295;28;20212;-58
2020/12/13 12:30:29;;;;;;;34.73;28.77;;;;;;;;;;5069705;28;20156;-59
2020/12/13 12:32:55;;;;;;;34.03;29.57;;;;;;;;;;5067733;28;20176;-58
2020/12/13 12:35:20;;;;;;;33.03;27.13;;;;;;;;;;5066092;28;20649;-58
2020/12/13 12:37:45;;;;;;;33.47;27.80;;;;;;;;;;5070036;28;20178;-59
2020/12/13 12:40:10;;;;;;;34.17;27.00;;;;;;;;;;5068715;28;20179;-58
2020/12/13 12:42:35;;;;;;;36.78;28.58;;;;;;;;;;5064425;28;20180;-58
2020/12/13 12:45:02;;;;;;;31.67;26.77;;;;;;;;;;5062348;28;20536;-58
2020/12/13 12:47:27;;;;;;;34.37;28.40;;;;;;;;;;5063945;28;20626;-59
2020/12/13 12:49:52;;;;;;;31.63;26.55;;;;;;;;;;5065138;28;20657;-59
2020/12/13 12:52:17;;;;;;;34.78;27.40;;;;;;;;;;5066042;28;20168;-59
2020/12/13 12:54:42;;;;;;;34.33;29.03;;;;;;;;;;5062677;28;20167;-59
2020/12/13 12:57:08;;;;;;;35.28;29.15;;;;;;;;;;5062184;28;20194;-57
2020/12/13 12:59:38;;;;;;;34.73;27.53;;;;;;;;;;5066427;28;20186;-57
2020/12/13 13:02:04;;;;;;;36.10;28.40;;;;;;;;;;5064837;28;20177;-57
2020/12/13 13:04:34;;;;;;;32.07;27.50;;;;;;;;;;5060359;28;20964;-57
2020/12/13 13:07:17;;;;;;;37.90;29.27;;;;;;;;;;5066034;28;20177;-58
2020/12/13 13:09:54;;;;;;;33.87;28.57;;;;;;;;;;5064640;28;20690;-57
2020/12/13 13:12:19;;;;;;;33.67;28.70;;;;;;;;;;5066059;28;20593;-57
2020/12/13 13:14:44;;;;;;;34.90;29.30;;;;;;;;;;5064594;28;20611;-57
2020/12/13 13:17:19;;;;;;;32.63;27.95;;;;;;;;;;5063493;28;20687;-57
2020/12/13 13:19:46;;;;;;;33.33;29.07;;;;;;;;;;5065845;28;20391;-58
2020/12/13 13:22:11;;;;;;;37.87;31.60;;;;;;;;;;5066065;28;21121;-57
2020/12/13 13:24:38;;;;;;;34.55;29.00;;;;;;;;;;5062517;28;20596;-57
2020/12/13 13:27:04;;;;;;;38.77;28.80;;;;;;;;;;5063849;28;20178;-58
2020/12/13 13:29:29;;;;;;;33.00;29.30;;;;;;;;;;5065773;28;20594;-57
2020/12/13 13:31:55;;;;;;;34.38;28.85;;;;;;;;;;5065185;28;20197;-57
2020/12/13 13:34:20;;;;;;;34.77;29.40;;;;;;;;;;5066038;28;20228;-57
2020/12/13 13:36:45;;;;;;;36.63;29.15;;;;;;;;;;5059669;28;20203;-58
2020/12/13 13:39:10;;;;;;;32.10;28.30;;;;;;;;;;5061942;28;20178;-57
2020/12/13 13:41:36;;;;;;;35.00;27.30;;;;;;;;;;5065137;28;20852;-57
2020/12/13 13:44:05;;;;;;;35.07;29.23;;;;;;;;;;5065338;28;20183;-58
2020/12/13 13:51:43;;;;;;;37.33;29.67;;;;;;;;;;5066578;28;20624;-57
2020/12/13 13:54:10;;;;;;;33.70;27.87;;;;;;;;;;5065433;28;21465;-57
2020/12/13 13:59:12;;;;;;;35.10;29.97;;;;;;;;;;5058463;28;20617;-58
2020/12/13 14:01:38;;;;;;;32.53;28.10;;;;;;;;;;5060981;28;20602;-56
2020/12/13 14:04:03;;;;;;;34.70;28.30;;;;;;;;;;5063750;28;20661;-57
2020/12/13 14:09:12;;;;;;;36.33;29.53;;;;;;;;;;5056899;28;20211;-57
2020/12/13 14:11:37;;;;;;;37.03;29.07;;;;;;;;;;5059887;28;21199;-57
2020/12/13 14:14:02;;;;;;;37.00;30.13;;;;;;;;;;5070413;28;20655;-57
2020/12/13 14:16:27;;;;;;;39.00;29.70;;;;;;;;;;5056067;28;20257;-57
2020/12/13 14:18:53;;;;;;;38.85;28.80;;;;;;;;;;5063637;28;20174;-57
2020/12/13 14:21:18;;;;;;;37.40;30.33;;;;;;;;;;5060337;28;20742;-57
2020/12/13 14:23:43;;;;;;;35.42;29.10;;;;;;;;;;5065717;28;20181;-57
2020/12/13 14:26:08;;;;;;;36.35;28.88;;;;;;;;;;5061444;28;20699;-57